Aviation Digital Data Service (ADDS)

Output produced by METARs form (0648 UTC 17 January 2017)
found at http://aviationweather.gov/adds/metars/
 
KSSI 170549Z 1706/1806 00000KT 1/4SM FG VV002 
     FM171400 19003KT 2SM BR BKN005 
     FM171500 19006KT P6SM SCT015 SCT250 
     FM172100 15009KT P6SM SCT040 BKN250